Private Wetterstation Sandau
Wetterdaten: Dienstag, 01.05.2012
Datum Zeit Temp. A. Feuchte A. Luftdruck Regen Wind Richtung Richtung Taupunkt Windchill
01.05.2012 00:01 12,8 C 71 % 1019,1 hPa 0,0 l/m 9,7 km/h (2 Bft) O 90 7,7 C 12,8 C
01.05.2012 00:06 12,7 C 71 % 1019,0 hPa 0,0 l/m 5,4 km/h (1 Bft) O 90 7,6 C 12,7 C
01.05.2012 00:11 12,6 C 71 % 1019,0 hPa 0,0 l/m 3,2 km/h (1 Bft) O 90 7,5 C 12,6 C
01.05.2012 00:16 12,6 C 71 % 1019,0 hPa 0,0 l/m 6,1 km/h (2 Bft) O 90 7,5 C 12,6 C
01.05.2012 00:21 12,5 C 72 % 1019,0 hPa 0,0 l/m 5,0 km/h (1 Bft) NO 45 7,6 C 12,5 C
01.05.2012 00:26 12,4 C 72 % 1019,1 hPa 0,0 l/m 2,5 km/h (1 Bft) N-NO 22 7,5 C 12,4 C
01.05.2012 00:31 12,4 C 72 % 1019,0 hPa 0,0 l/m 4,0 km/h (1 Bft) O 90 7,5 C 12,4 C
01.05.2012 00:36 12,3 C 72 % 1018,9 hPa 0,0 l/m 12,2 km/h (2 Bft) SO 135 7,4 C 12,3 C
01.05.2012 00:41 12,3 C 72 % 1018,9 hPa 0,0 l/m 8,6 km/h (2 Bft) O-NO 67 7,4 C 12,3 C
01.05.2012 00:46 12,3 C 72 % 1018,9 hPa 0,0 l/m 3,2 km/h (1 Bft) NO 45 7,4 C 12,3 C
01.05.2012 00:51 12,2 C 72 % 1019,1 hPa 0,0 l/m 9,0 km/h (2 Bft) O-NO 67 7,3 C 12,2 C
01.05.2012 00:56 12,2 C 73 % 1018,9 hPa 0,0 l/m 5,0 km/h (1 Bft) NO 45 7,5 C 12,2 C
01.05.2012 01:01 12,2 C 73 % 1018,9 hPa 0,0 l/m 3,6 km/h (1 Bft) O-NO 67 7,5 C 12,2 C
01.05.2012 01:06 12,2 C 73 % 1018,9 hPa 0,0 l/m 3,2 km/h (1 Bft) O 90 7,5 C 12,2 C
01.05.2012 01:11 12,1 C 73 % 1018,9 hPa 0,0 l/m 10,4 km/h (2 Bft) O-NO 67 7,4 C 12,1 C
01.05.2012 01:16 12,1 C 73 % 1018,8 hPa 0,0 l/m 9,7 km/h (2 Bft) O-NO 67 7,4 C 12,1 C
01.05.2012 01:21 11,9 C 73 % 1018,8 hPa 0,0 l/m 6,1 km/h (2 Bft) O-NO 67 7,2 C 11,9 C
01.05.2012 01:26 11,9 C 73 % 1018,8 hPa 0,0 l/m 9,4 km/h (2 Bft) O 90 7,2 C 11,9 C
01.05.2012 01:31 11,9 C 73 % 1018,8 hPa 0,0 l/m 7,2 km/h (2 Bft) O-NO 67 7,2 C 11,9 C
01.05.2012 01:36 11,9 C 73 % 1018,9 hPa 0,0 l/m 6,8 km/h (2 Bft) O-NO 67 7,2 C 11,9 C
01.05.2012 01:41 11,8 C 73 % 1018,9 hPa 0,0 l/m 2,9 km/h (1 Bft) O-NO 67 7,1 C 11,8 C
01.05.2012 01:46 11,8 C 73 % 1018,8 hPa 0,0 l/m 5,4 km/h (1 Bft) O-NO 67 7,1 C 11,8 C
01.05.2012 01:51 11,8 C 72 % 1018,8 hPa 0,0 l/m 5,4 km/h (1 Bft) O 90 6,9 C 11,8 C
01.05.2012 01:56 11,8 C 72 % 1018,9 hPa 0,0 l/m 9,7 km/h (2 Bft) O-NO 67 6,9 C 11,8 C
01.05.2012 02:01 11,8 C 72 % 1018,6 hPa 0,0 l/m 5,8 km/h (2 Bft) O-NO 67 6,9 C 11,8 C
01.05.2012 02:06 11,8 C 72 % 1018,6 hPa 0,0 l/m 5,0 km/h (1 Bft) N-NO 22 6,9 C 11,8 C
01.05.2012 02:11 11,8 C 72 % 1018,5 hPa 0,0 l/m 4,0 km/h (1 Bft) O 90 6,9 C 11,8 C
01.05.2012 02:16 11,8 C 72 % 1018,5 hPa 0,0 l/m 5,8 km/h (2 Bft) N-NO 22 6,9 C 11,8 C
01.05.2012 02:21 11,6 C 72 % 1018,4 hPa 0,0 l/m 6,1 km/h (2 Bft) O-NO 67 6,7 C 11,6 C
01.05.2012 02:26 11,6 C 72 % 1018,3 hPa 0,0 l/m 3,6 km/h (1 Bft) O-NO 67 6,7 C 11,6 C
01.05.2012 02:31 11,5 C 72 % 1018,3 hPa 0,0 l/m 6,8 km/h (2 Bft) NO 45 6,6 C 11,5 C
01.05.2012 02:36 11,4 C 72 % 1018,4 hPa 0,0 l/m 5,0 km/h (1 Bft) S 180 6,5 C 11,4 C
01.05.2012 02:41 11,4 C 73 % 1018,3 hPa 0,0 l/m 12,2 km/h (2 Bft) O 90 6,7 C 11,4 C
01.05.2012 02:46 11,3 C 73 % 1018,2 hPa 0,0 l/m 4,3 km/h (1 Bft) N-NO 22 6,6 C 11,3 C
01.05.2012 02:51 11,2 C 73 % 1018,2 hPa 0,0 l/m 1,8 km/h (1 Bft) NO 45 6,5 C 11,2 C
01.05.2012 02:56 11,2 C 73 % 1018,2 hPa 0,0 l/m 4,7 km/h (1 Bft) O-NO 67 6,5 C 11,2 C
01.05.2012 03:01 11,2 C 73 % 1018,2 hPa 0,0 l/m 4,0 km/h (1 Bft) NO 45 6,5 C 11,2 C
01.05.2012 03:06 11,1 C 73 % 1018,2 hPa 0,0 l/m 3,6 km/h (1 Bft) O 90 6,4 C 11,1 C
01.05.2012 03:11 11,1 C 73 % 1018,2 hPa 0,0 l/m 7,9 km/h (2 Bft) O-NO 67 6,4 C 11,1 C
01.05.2012 03:16 11,0 C 73 % 1018,1 hPa 0,0 l/m 4,7 km/h (1 Bft) O-NO 67 6,4 C 11,0 C
01.05.2012 03:21 10,9 C 74 % 1018,2 hPa 0,0 l/m 3,2 km/h (1 Bft) NO 45 6,5 C 10,9 C
01.05.2012 03:26 10,9 C 74 % 1018,2 hPa 0,0 l/m 3,6 km/h (1 Bft) O 90 6,5 C 10,9 C
01.05.2012 03:31 10,9 C 74 % 1018,3 hPa 0,0 l/m 2,5 km/h (1 Bft) NO 45 6,5 C 10,9 C
01.05.2012 03:36 10,9 C 74 % 1018,2 hPa 0,0 l/m 2,9 km/h (1 Bft) NO 45 6,5 C 10,9 C
01.05.2012 03:41 10,9 C 74 % 1018,3 hPa 0,0 l/m 6,8 km/h (2 Bft) O-NO 67 6,5 C 10,9 C
01.05.2012 03:46 10,8 C 74 % 1018,2 hPa 0,0 l/m 5,8 km/h (2 Bft) NO 45 6,4 C 10,8 C
01.05.2012 03:51 10,6 C 74 % 1018,0 hPa 0,0 l/m 7,2 km/h (2 Bft) O-NO 67 6,2 C 10,6 C
01.05.2012 03:56 10,6 C 75 % 1018,1 hPa 0,0 l/m 5,8 km/h (2 Bft) O-NO 67 6,4 C 10,6 C
01.05.2012 04:01 10,6 C 75 % 1018,0 hPa 0,0 l/m 7,2 km/h (2 Bft) O-NO 67 6,4 C 10,6 C
01.05.2012 04:06 10,6 C 75 % 1018,0 hPa 0,0 l/m 4,7 km/h (1 Bft) O-NO 67 6,4 C 10,6 C
01.05.2012 04:11 10,5 C 74 % 1018,2 hPa 0,0 l/m 8,6 km/h (2 Bft) O-SO 112 6,1 C 10,5 C
01.05.2012 04:16 10,5 C 74 % 1018,4 hPa 0,0 l/m 0,0 km/h (0 Bft) O-SO 112 6,1 C 10,5 C
01.05.2012 04:21 10,6 C 74 % 1018,6 hPa 0,0 l/m 1,4 km/h (1 Bft) S-SO 157 6,2 C 10,6 C
01.05.2012 04:26 10,8 C 74 % 1018,3 hPa 0,0 l/m 0,0 km/h (0 Bft) O-NO 67 6,4 C 10,8 C
01.05.2012 04:31 10,6 C 74 % 1018,2 hPa 0,0 l/m 3,2 km/h (1 Bft) O 90 6,2 C 10,6 C
01.05.2012 04:36 10,6 C 74 % 1018,3 hPa 0,0 l/m 2,5 km/h (1 Bft) O-NO 67 6,2 C 10,6 C
01.05.2012 04:41 10,5 C 74 % 1018,3 hPa 0,0 l/m 1,4 km/h (1 Bft) NO 45 6,1 C 10,5 C
01.05.2012 04:46 10,5 C 74 % 1018,2 hPa 0,0 l/m 2,2 km/h (1 Bft) NO 45 6,1 C 10,5 C
01.05.2012 04:51 10,4 C 74 % 1018,1 hPa 0,0 l/m 0,0 km/h (0 Bft) NO 45 6,0 C 10,4 C
01.05.2012 04:56 10,3 C 74 % 1018,2 hPa 0,0 l/m 1,1 km/h (1 Bft) NO 45 5,9 C 10,3 C
01.05.2012 05:01 10,3 C 74 % 1018,1 hPa 0,0 l/m 0,0 km/h (0 Bft) N-NO 22 5,9 C 10,3 C
01.05.2012 05:06 10,2 C 75 % 1018,0 hPa 0,0 l/m 2,5 km/h (1 Bft) NO 45 6,0 C 10,2 C
01.05.2012 05:11 10,2 C 75 % 1017,9 hPa 0,0 l/m 5,4 km/h (1 Bft) O-NO 67 6,0 C 10,2 C
01.05.2012 05:16 10,1 C 75 % 1017,9 hPa 0,0 l/m 2,9 km/h (1 Bft) NO 45 5,9 C 10,1 C
01.05.2012 05:21 10,1 C 75 % 1017,8 hPa 0,0 l/m 3,2 km/h (1 Bft) O-NO 67 5,9 C 10,1 C
01.05.2012 05:26 10,1 C 75 % 1017,9 hPa 0,0 l/m 2,5 km/h (1 Bft) NO 45 5,9 C 10,1 C
01.05.2012 05:31 10,1 C 75 % 1017,9 hPa 0,0 l/m 3,2 km/h (1 Bft) NO 45 5,9 C 10,1 C
01.05.2012 05:36 10,1 C 75 % 1017,9 hPa 0,0 l/m 3,2 km/h (1 Bft) NO 45 5,9 C 10,1 C
01.05.2012 05:41 10,1 C 76 % 1017,9 hPa 0,0 l/m 0,0 km/h (0 Bft) O-SO 112 6,1 C 10,1 C
01.05.2012 05:46 10,0 C 76 % 1018,0 hPa 0,0 l/m 1,4 km/h (1 Bft) O 90 6,0 C 10,0 C
01.05.2012 05:51 10,0 C 76 % 1017,9 hPa 0,0 l/m 2,2 km/h (1 Bft) NO 45 6,0 C 10,0 C
01.05.2012 05:56 9,9 C 76 % 1017,9 hPa 0,0 l/m 1,1 km/h (1 Bft) O-NO 67 5,9 C 9,9 C
01.05.2012 06:01 9,9 C 76 % 1017,9 hPa 0,0 l/m 2,5 km/h (1 Bft) O-NO 67 5,9 C 9,9 C
01.05.2012 06:06 9,9 C 76 % 1017,8 hPa 0,0 l/m 3,6 km/h (1 Bft) O-NO 67 5,9 C 9,9 C
01.05.2012 06:11 9,9 C 76 % 1017,8 hPa 0,0 l/m 1,8 km/h (1 Bft) NO 45 5,9 C 9,9 C
01.05.2012 06:16 9,9 C 76 % 1017,9 hPa 0,0 l/m 1,4 km/h (1 Bft) O-NO 67 5,9 C 9,9 C
01.05.2012 06:21 9,9 C 76 % 1017,8 hPa 0,0 l/m 4,0 km/h (1 Bft) NO 45 5,9 C 9,9 C
01.05.2012 06:26 9,9 C 77 % 1017,9 hPa 0,0 l/m 4,3 km/h (1 Bft) O 90 6,1 C 9,9 C
01.05.2012 06:31 9,9 C 77 % 1017,9 hPa 0,0 l/m 4,0 km/h (1 Bft) O-NO 67 6,1 C 9,9 C
01.05.2012 06:36 9,9 C 77 % 1017,9 hPa 0,0 l/m 2,5 km/h (1 Bft) NO 45 6,1 C 9,9 C
01.05.2012 06:41 10,2 C 77 % 1018,0 hPa 0,0 l/m 3,2 km/h (1 Bft) O 90 6,4 C 10,2 C
01.05.2012 06:46 10,4 C 77 % 1018,0 hPa 0,0 l/m 2,2 km/h (1 Bft) NO 45 6,5 C 10,4 C
01.05.2012 06:51 10,6 C 76 % 1017,9 hPa 0,0 l/m 4,0 km/h (1 Bft) O-NO 67 6,5 C 10,6 C
01.05.2012 06:56 10,8 C 75 % 1018,0 hPa 0,0 l/m 0,0 km/h (0 Bft) O-NO 67 6,5 C 10,8 C
01.05.2012 07:01 10,9 C 75 % 1018,0 hPa 0,0 l/m 5,8 km/h (2 Bft) NO 45 6,6 C 10,9 C
01.05.2012 07:06 10,9 C 75 % 1017,9 hPa 0,0 l/m 0,0 km/h (0 Bft) O-NO 67 6,6 C 10,9 C
01.05.2012 07:11 11,1 C 75 % 1018,0 hPa 0,0 l/m 0,0 km/h (0 Bft) O 90 6,8 C 11,1 C
01.05.2012 07:16 11,3 C 75 % 1018,0 hPa 0,0 l/m 4,3 km/h (1 Bft) O-NO 67 7,0 C 11,3 C
01.05.2012 07:21 11,5 C 74 % 1017,9 hPa 0,0 l/m 10,1 km/h (2 Bft) O-NO 67 7,0 C 11,5 C
01.05.2012 07:26 11,5 C 74 % 1018,0 hPa 0,0 l/m 5,8 km/h (2 Bft) O-SO 112 7,0 C 11,5 C
01.05.2012 07:31 11,7 C 74 % 1017,9 hPa 0,0 l/m 4,0 km/h (1 Bft) O 90 7,2 C 11,7 C
01.05.2012 07:36 11,8 C 74 % 1017,9 hPa 0,0 l/m 4,7 km/h (1 Bft) NO 45 7,3 C 11,8 C
01.05.2012 07:41 12,0 C 73 % 1017,9 hPa 0,0 l/m 10,1 km/h (2 Bft) O 90 7,3 C 12,0 C
01.05.2012 07:46 12,1 C 73 % 1018,0 hPa 0,0 l/m 4,7 km/h (1 Bft) O 90 7,4 C 12,1 C
01.05.2012 07:51 12,3 C 73 % 1018,0 hPa 0,0 l/m 9,7 km/h (2 Bft) O 90 7,6 C 12,3 C
01.05.2012 07:56 12,4 C 73 % 1017,9 hPa 0,0 l/m 7,9 km/h (2 Bft) O-NO 67 7,7 C 12,4 C
01.05.2012 08:01 12,6 C 72 % 1018,0 hPa 0,0 l/m 6,1 km/h (2 Bft) O-SO 112 7,7 C 12,6 C
01.05.2012 08:06 12,8 C 72 % 1018,0 hPa 0,0 l/m 5,8 km/h (2 Bft) O-NO 67 7,9 C 12,8 C
01.05.2012 08:11 12,9 C 72 % 1018,0 hPa 0,0 l/m 5,8 km/h (2 Bft) O 90 8,0 C 12,9 C
01.05.2012 08:16 13,1 C 71 % 1017,9 hPa 0,0 l/m 4,3 km/h (1 Bft) O-NO 67 8,0 C 13,1 C
01.05.2012 08:21 13,2 C 71 % 1017,9 hPa 0,0 l/m 6,5 km/h (2 Bft) O-NO 67 8,1 C 13,2 C
01.05.2012 08:26 13,3 C 71 % 1017,8 hPa 0,0 l/m 6,1 km/h (2 Bft) O-SO 112 8,2 C 13,3 C
01.05.2012 08:31 13,4 C 71 % 1017,8 hPa 0,0 l/m 11,9 km/h (2 Bft) O-NO 67 8,3 C 13,4 C
01.05.2012 08:36 13,6 C 70 % 1017,6 hPa 0,0 l/m 9,0 km/h (2 Bft) O-NO 67 8,2 C 13,6 C
01.05.2012 08:41 13,8 C 70 % 1017,6 hPa 0,0 l/m 8,3 km/h (2 Bft) O-NO 67 8,4 C 13,8 C
01.05.2012 08:46 13,9 C 70 % 1017,5 hPa 0,0 l/m 10,8 km/h (2 Bft) NO 45 8,5 C 13,9 C
01.05.2012 08:51 14,0 C 70 % 1017,5 hPa 0,0 l/m 8,6 km/h (2 Bft) NO 45 8,6 C 14,0 C
01.05.2012 08:56 14,1 C 70 % 1017,6 hPa 0,0 l/m 5,0 km/h (1 Bft) O 90 8,7 C 14,1 C
01.05.2012 09:01 14,3 C 69 % 1017,7 hPa 0,0 l/m 11,2 km/h (2 Bft) O 90 8,7 C 14,3 C
01.05.2012 09:06 14,5 C 69 % 1017,8 hPa 0,0 l/m 4,7 km/h (1 Bft) O-NO 67 8,9 C 14,5 C
01.05.2012 09:11 14,7 C 69 % 1017,9 hPa 0,0 l/m 7,9 km/h (2 Bft) O-SO 112 9,1 C 14,7 C
01.05.2012 09:16 14,9 C 69 % 1017,9 hPa 0,0 l/m 6,5 km/h (2 Bft) NO 45 9,3 C 14,9 C
01.05.2012 09:21 14,9 C 68 % 1017,8 hPa 0,0 l/m 7,2 km/h (2 Bft) O 90 9,0 C 14,9 C
01.05.2012 09:26 15,1 C 68 % 1017,8 hPa 0,0 l/m 4,7 km/h (1 Bft) O 90 9,2 C 15,1 C
01.05.2012 09:31 15,4 C 68 % 1017,8 hPa 0,0 l/m 8,3 km/h (2 Bft) S-SO 157 9,5 C 15,4 C
01.05.2012 09:36 15,8 C 67 % 1017,9 hPa 0,0 l/m 3,2 km/h (1 Bft) SO 135 9,7 C 15,8 C
01.05.2012 09:41 15,9 C 66 % 1017,8 hPa 0,0 l/m 10,4 km/h (2 Bft) O-SO 112 9,6 C 15,9 C
01.05.2012 09:46 16,1 C 66 % 1017,9 hPa 0,0 l/m 5,8 km/h (2 Bft) NO 45 9,7 C 16,1 C
01.05.2012 09:51 16,2 C 66 % 1017,8 hPa 0,0 l/m 11,5 km/h (2 Bft) O-NO 67 9,8 C 16,2 C
01.05.2012 09:56 16,4 C 66 % 1017,8 hPa 0,0 l/m 5,8 km/h (2 Bft) NO 45 10,0 C 16,4 C
01.05.2012 10:01 16,6 C 66 % 1017,7 hPa 0,0 l/m 6,8 km/h (2 Bft) O-NO 67 10,2 C 16,6 C
01.05.2012 10:06 16,8 C 65 % 1017,8 hPa 0,0 l/m 5,8 km/h (2 Bft) O 90 10,2 C 16,8 C
01.05.2012 10:11 16,9 C 65 % 1017,7 hPa 0,0 l/m 5,0 km/h (1 Bft) S-SO 157 10,3 C 16,9 C
01.05.2012 10:16 17,1 C 64 % 1017,9 hPa 0,0 l/m 12,2 km/h (2 Bft) O-SO 112 10,2 C 17,1 C
01.05.2012 10:21 17,2 C 64 % 1017,9 hPa 0,0 l/m 0,0 km/h (0 Bft) O 90 10,3 C 17,2 C
01.05.2012 10:26 17,4 C 64 % 1017,9 hPa 0,0 l/m 5,8 km/h (2 Bft) O 90 10,5 C 17,4 C
01.05.2012 10:31 17,6 C 63 % 1017,8 hPa 0,0 l/m 10,4 km/h (2 Bft) O 90 10,5 C 17,6 C
01.05.2012 10:36 17,8 C 63 % 1017,8 hPa 0,0 l/m 6,8 km/h (2 Bft) O 90 10,7 C 17,8 C
01.05.2012 10:41 18,1 C 63 % 1017,6 hPa 0,0 l/m 4,7 km/h (1 Bft) O 90 10,9 C 18,1 C
01.05.2012 10:46 18,3 C 62 % 1017,5 hPa 0,0 l/m 11,9 km/h (2 Bft) O-NO 67 10,9 C 18,3 C
01.05.2012 10:51 18,4 C 61 % 1017,4 hPa 0,0 l/m 11,9 km/h (2 Bft) N-NO 22 10,7 C 18,4 C
01.05.2012 10:56 18,5 C 61 % 1017,5 hPa 0,0 l/m 9,4 km/h (2 Bft) O-SO 112 10,8 C 18,5 C
01.05.2012 11:01 18,8 C 61 % 1017,4 hPa 0,0 l/m 5,0 km/h (1 Bft) NO 45 11,1 C 18,8 C
01.05.2012 11:06 18,9 C 61 % 1017,2 hPa 0,0 l/m 16,6 km/h (3 Bft) O 90 11,2 C 18,9 C
01.05.2012 11:11 19,0 C 61 % 1017,4 hPa 0,0 l/m 8,6 km/h (2 Bft) O-SO 112 11,3 C 19,0 C
01.05.2012 11:16 19,2 C 60 % 1017,3 hPa 0,0 l/m 11,9 km/h (2 Bft) O-SO 112 11,2 C 19,2 C
01.05.2012 11:21 19,3 C 61 % 1017,2 hPa 0,0 l/m 7,2 km/h (2 Bft) NO 45 11,6 C 19,3 C
01.05.2012 11:26 19,6 C 60 % 1017,2 hPa 0,0 l/m 4,7 km/h (1 Bft) N 360 11,6 C 19,6 C
01.05.2012 11:31 19,9 C 60 % 1017,3 hPa 0,0 l/m 4,7 km/h (1 Bft) O-NO 67 11,9 C 19,9 C
01.05.2012 11:36 20,2 C 58 % 1017,4 hPa 0,0 l/m 3,6 km/h (1 Bft) O 90 11,7 C 20,2 C
01.05.2012 11:41 20,3 C 58 % 1017,3 hPa 0,0 l/m 6,8 km/h (2 Bft) O-NO 67 11,8 C 20,3 C
01.05.2012 11:46 20,6 C 58 % 1017,3 hPa 0,0 l/m 8,3 km/h (2 Bft) NO 45 12,0 C 20,6 C
01.05.2012 11:51 20,8 C 57 % 1017,3 hPa 0,0 l/m 11,2 km/h (2 Bft) O-SO 112 12,0 C 20,8 C
01.05.2012 11:56 20,9 C 56 % 1017,2 hPa 0,0 l/m 11,5 km/h (2 Bft) O-NO 67 11,8 C 20,9 C
01.05.2012 12:01 20,9 C 57 % 1017,2 hPa 0,0 l/m 8,6 km/h (2 Bft) O-SO 112 12,1 C 20,9 C
01.05.2012 12:06 21,2 C 57 % 1017,3 hPa 0,0 l/m 13,7 km/h (3 Bft) O 90 12,3 C 21,2 C
01.05.2012 12:11 21,3 C 56 % 1017,2 hPa 0,0 l/m 7,2 km/h (2 Bft) O 90 12,2 C 21,3 C
01.05.2012 12:16 21,4 C 56 % 1017,3 hPa 0,0 l/m 4,7 km/h (1 Bft) NO 45 12,3 C 21,4 C
01.05.2012 12:21 21,6 C 56 % 1017,2 hPa 0,0 l/m 14,4 km/h (3 Bft) O-NO 67 12,4 C 21,6 C
01.05.2012 12:26 21,8 C 55 % 1017,2 hPa 0,0 l/m 3,6 km/h (1 Bft) O 90 12,4 C 21,8 C
01.05.2012 12:31 22,1 C 55 % 1017,3 hPa 0,0 l/m 3,6 km/h (1 Bft) SO 135 12,6 C 22,1 C
01.05.2012 12:36 22,2 C 54 % 1017,2 hPa 0,0 l/m 2,9 km/h (1 Bft) S-SO 157 12,4 C 22,2 C
01.05.2012 12:41 22,3 C 54 % 1017,2 hPa 0,0 l/m 4,3 km/h (1 Bft) O-SO 112 12,5 C 22,3 C
01.05.2012 12:46 22,4 C 54 % 1017,4 hPa 0,0 l/m 4,0 km/h (1 Bft) SO 135 12,6 C 22,4 C
01.05.2012 12:51 22,6 C 53 % 1017,2 hPa 0,0 l/m 5,0 km/h (1 Bft) O-NO 67 12,5 C 22,6 C
01.05.2012 12:56 22,6 C 54 % 1017,3 hPa 0,0 l/m 7,6 km/h (2 Bft) O-NO 67 12,8 C 22,6 C
01.05.2012 13:01 22,6 C 54 % 1017,1 hPa 0,0 l/m 4,0 km/h (1 Bft) O-SO 112 12,8 C 22,6 C
01.05.2012 13:06 22,8 C 53 % 1017,1 hPa 0,0 l/m 11,2 km/h (2 Bft) O-SO 112 12,7 C 22,8 C
01.05.2012 13:11 22,9 C 53 % 1017,1 hPa 0,0 l/m 7,9 km/h (2 Bft) O-SO 112 12,8 C 22,9 C
01.05.2012 13:16 23,1 C 53 % 1017,1 hPa 0,0 l/m 4,7 km/h (1 Bft) N 360 13,0 C 23,1 C
01.05.2012 13:21 23,3 C 53 % 1016,9 hPa 0,0 l/m 5,8 km/h (2 Bft) O 90 13,2 C 23,3 C
01.05.2012 13:26 23,5 C 52 % 1017,0 hPa 0,0 l/m 10,8 km/h (2 Bft) O-SO 112 13,1 C 23,5 C
01.05.2012 13:31 23,6 C 52 % 1017,0 hPa 0,0 l/m 11,2 km/h (2 Bft) O 90 13,2 C 23,6 C
01.05.2012 13:36 23,9 C 52 % 1016,8 hPa 0,0 l/m 8,3 km/h (2 Bft) O-NO 67 13,4 C 23,9 C
01.05.2012 13:41 23,9 C 52 % 1016,8 hPa 0,0 l/m 6,1 km/h (2 Bft) O-NO 67 13,4 C 23,9 C
01.05.2012 13:46 24,2 C 52 % 1016,8 hPa 0,0 l/m 5,4 km/h (1 Bft) O 90 13,7 C 24,2 C
01.05.2012 13:51 24,5 C 51 % 1016,9 hPa 0,0 l/m 13,0 km/h (3 Bft) O 90 13,7 C 24,5 C
01.05.2012 13:56 24,6 C 52 % 1016,9 hPa 0,0 l/m 18,0 km/h (3 Bft) O-NO 67 14,1 C 24,6 C
01.05.2012 14:01 24,6 C 51 % 1016,9 hPa 0,0 l/m 7,6 km/h (2 Bft) O 90 13,8 C 24,6 C
01.05.2012 14:06 24,8 C 51 % 1016,9 hPa 0,0 l/m 20,9 km/h (4 Bft) O-SO 112 14,0 C 24,8 C
01.05.2012 14:11 24,8 C 51 % 1016,8 hPa 0,0 l/m 9,0 km/h (2 Bft) O 90 14,0 C 24,8 C
01.05.2012 14:16 24,8 C 51 % 1016,8 hPa 0,0 l/m 9,0 km/h (2 Bft) O-NO 67 14,0 C 24,8 C
01.05.2012 14:21 24,9 C 51 % 1016,7 hPa 0,0 l/m 9,4 km/h (2 Bft) O-NO 67 14,1 C 24,9 C
01.05.2012 14:26 24,9 C 51 % 1016,6 hPa 0,0 l/m 8,6 km/h (2 Bft) O 90 14,1 C 24,9 C
01.05.2012 14:31 25,2 C 51 % 1016,6 hPa 0,0 l/m 16,6 km/h (3 Bft) O 90 14,3 C 25,2 C
01.05.2012 14:36 25,3 C 50 % 1016,5 hPa 0,0 l/m 8,6 km/h (2 Bft) O 90 14,1 C 25,3 C
01.05.2012 14:41 25,4 C 50 % 1016,5 hPa 0,0 l/m 8,6 km/h (2 Bft) O 90 14,2 C 25,4 C
01.05.2012 14:46 25,5 C 50 % 1016,4 hPa 0,0 l/m 19,8 km/h (3 Bft) O-NO 67 14,3 C 25,5 C
01.05.2012 14:51 25,4 C 50 % 1016,4 hPa 0,0 l/m 5,4 km/h (1 Bft) O-NO 67 14,2 C 25,4 C
01.05.2012 14:56 25,4 C 50 % 1016,4 hPa 0,0 l/m 11,9 km/h (2 Bft) O-NO 67 14,2 C 25,4 C
01.05.2012 15:01 25,6 C 50 % 1016,4 hPa 0,0 l/m 8,3 km/h (2 Bft) O 90 14,4 C 25,6 C
01.05.2012 15:06 25,8 C 50 % 1016,3 hPa 0,0 l/m 8,3 km/h (2 Bft) O-SO 112 14,6 C 25,8 C
01.05.2012 15:11 25,9 C 49 % 1016,3 hPa 0,0 l/m 6,1 km/h (2 Bft) SO 135 14,4 C 25,9 C
01.05.2012 15:16 25,9 C 50 % 1016,3 hPa 0,0 l/m 4,7 km/h (1 Bft) O-NO 67 14,7 C 25,9 C
01.05.2012 15:21 25,9 C 49 % 1016,3 hPa 0,0 l/m 7,6 km/h (2 Bft) O 90 14,4 C 25,9 C
01.05.2012 15:26 25,9 C 49 % 1016,3 hPa 0,0 l/m 13,3 km/h (3 Bft) O-SO 112 14,4 C 25,9 C
01.05.2012 15:31 25,9 C 49 % 1016,2 hPa 0,0 l/m 14,0 km/h (3 Bft) O-SO 112 14,4 C 25,9 C
01.05.2012 15:36 26,1 C 49 % 1016,2 hPa 0,0 l/m 9,4 km/h (2 Bft) O-SO 112 14,5 C 26,1 C
01.05.2012 15:41 26,2 C 49 % 1016,1 hPa 0,0 l/m 6,5 km/h (2 Bft) O 90 14,6 C 26,2 C
01.05.2012 15:46 26,3 C 49 % 1016,2 hPa 0,0 l/m 6,5 km/h (2 Bft) O 90 14,7 C 26,3 C
01.05.2012 15:51 26,4 C 49 % 1016,1 hPa 0,0 l/m 4,0 km/h (1 Bft) O-SO 112 14,8 C 26,4 C
01.05.2012 15:56 26,5 C 49 % 1016,0 hPa 0,0 l/m 10,1 km/h (2 Bft) O 90 14,9 C 26,5 C
01.05.2012 16:01 26,5 C 48 % 1016,0 hPa 0,0 l/m 2,9 km/h (1 Bft) O-SO 112 14,6 C 26,5 C
01.05.2012 16:06 26,6 C 48 % 1015,9 hPa 0,0 l/m 8,6 km/h (2 Bft) O-SO 112 14,7 C 26,6 C
01.05.2012 16:11 26,6 C 47 % 1016,0 hPa 0,0 l/m 8,6 km/h (2 Bft) O-NO 67 14,3 C 26,6 C
01.05.2012 16:16 26,6 C 47 % 1016,0 hPa 0,0 l/m 9,4 km/h (2 Bft) SO 135 14,3 C 26,6 C
01.05.2012 16:21 26,6 C 47 % 1015,9 hPa 0,0 l/m 9,7 km/h (2 Bft) O-SO 112 14,3 C 26,6 C
01.05.2012 16:26 26,5 C 46 % 1015,9 hPa 0,0 l/m 7,2 km/h (2 Bft) O 90 13,9 C 26,5 C
01.05.2012 16:31 26,5 C 47 % 1016,0 hPa 0,0 l/m 10,1 km/h (2 Bft) O 90 14,3 C 26,5 C
01.05.2012 16:36 26,4 C 47 % 1015,8 hPa 0,0 l/m 9,4 km/h (2 Bft) O-SO 112 14,2 C 26,4 C
01.05.2012 16:41 26,6 C 47 % 1016,0 hPa 0,0 l/m 7,9 km/h (2 Bft) O-SO 112 14,3 C 26,6 C
01.05.2012 16:46 26,6 C 46 % 1016,0 hPa 0,0 l/m 12,2 km/h (2 Bft) O 90 14,0 C 26,6 C
01.05.2012 16:51 26,6 C 47 % 1016,0 hPa 0,0 l/m 6,8 km/h (2 Bft) O 90 14,3 C 26,6 C
01.05.2012 16:56 26,6 C 46 % 1016,0 hPa 0,0 l/m 16,2 km/h (3 Bft) O 90 14,0 C 26,6 C
01.05.2012 17:01 26,6 C 47 % 1016,0 hPa 0,0 l/m 6,5 km/h (2 Bft) O 90 14,3 C 26,6 C
01.05.2012 17:06 26,6 C 47 % 1016,0 hPa 0,0 l/m 8,6 km/h (2 Bft) O-SO 112 14,3 C 26,6 C
01.05.2012 17:11 26,7 C 47 % 1016,0 hPa 0,0 l/m 6,8 km/h (2 Bft) O-SO 112 14,4 C 26,7 C
01.05.2012 17:16 26,9 C 46 % 1016,0 hPa 0,0 l/m 12,2 km/h (2 Bft) O-SO 112 14,3 C 26,9 C
01.05.2012 17:21 26,9 C 46 % 1015,9 hPa 0,0 l/m 3,2 km/h (1 Bft) NO 45 14,3 C 26,9 C
01.05.2012 17:26 26,8 C 46 % 1015,8 hPa 0,0 l/m 7,9 km/h (2 Bft) O 90 14,2 C 26,8 C
01.05.2012 17:31 26,8 C 46 % 1015,7 hPa 0,0 l/m 2,9 km/h (1 Bft) SO 135 14,2 C 26,8 C
01.05.2012 17:36 26,8 C 46 % 1015,8 hPa 0,0 l/m 8,6 km/h (2 Bft) O 90 14,2 C 26,8 C
01.05.2012 17:41 26,7 C 46 % 1015,8 hPa 0,0 l/m 4,7 km/h (1 Bft) O-SO 112 14,1 C 26,7 C
01.05.2012 17:46 26,6 C 47 % 1015,9 hPa 0,0 l/m 3,6 km/h (1 Bft) O 90 14,3 C 26,6 C
01.05.2012 17:51 26,5 C 47 % 1015,9 hPa 0,0 l/m 9,4 km/h (2 Bft) O-NO 67 14,3 C 26,5 C
01.05.2012 17:56 26,6 C 47 % 1016,0 hPa 0,0 l/m 5,0 km/h (1 Bft) O-NO 67 14,3 C 26,6 C
01.05.2012 18:01 26,5 C 47 % 1016,0 hPa 0,0 l/m 9,7 km/h (2 Bft) NO 45 14,3 C 26,5 C
01.05.2012 18:06 26,4 C 48 % 1016,0 hPa 0,0 l/m 7,2 km/h (2 Bft) O-NO 67 14,5 C 26,4 C
01.05.2012 18:11 26,4 C 48 % 1015,9 hPa 0,0 l/m 7,6 km/h (2 Bft) O-SO 112 14,5 C 26,4 C
01.05.2012 18:16 26,4 C 48 % 1015,8 hPa 0,0 l/m 8,6 km/h (2 Bft) O-SO 112 14,5 C 26,4 C
01.05.2012 18:21 26,4 C 48 % 1015,7 hPa 0,0 l/m 2,9 km/h (1 Bft) SO 135 14,5 C 26,4 C
01.05.2012 18:26 26,3 C 48 % 1015,7 hPa 0,0 l/m 4,3 km/h (1 Bft) O-SO 112 14,4 C 26,3 C
01.05.2012 18:31 26,4 C 49 % 1015,8 hPa 0,0 l/m 5,8 km/h (2 Bft) O 90 14,8 C 26,4 C
01.05.2012 18:36 26,3 C 49 % 1015,7 hPa 0,0 l/m 12,6 km/h (3 Bft) O 90 14,7 C 26,3 C
01.05.2012 18:41 26,1 C 48 % 1015,8 hPa 0,0 l/m 9,7 km/h (2 Bft) O-NO 67 14,2 C 26,1 C
01.05.2012 18:46 25,8 C 49 % 1015,9 hPa 0,0 l/m 10,1 km/h (2 Bft) NO 45 14,3 C 25,8 C
01.05.2012 18:51 25,4 C 50 % 1016,0 hPa 0,0 l/m 6,1 km/h (2 Bft) N-NO 22 14,2 C 25,4 C
01.05.2012 18:56 25,1 C 50 % 1016,0 hPa 0,0 l/m 7,9 km/h (2 Bft) O 90 13,9 C 25,1 C
01.05.2012 19:01 24,8 C 50 % 1016,0 hPa 0,0 l/m 11,2 km/h (2 Bft) N-NO 22 13,7 C 24,8 C
01.05.2012 19:06 24,4 C 50 % 1016,1 hPa 0,0 l/m 11,9 km/h (2 Bft) O-NO 67 13,3 C 24,4 C
01.05.2012 19:11 24,1 C 50 % 1016,0 hPa 0,0 l/m 14,0 km/h (3 Bft) N-NO 22 13,0 C 24,1 C
01.05.2012 19:16 23,9 C 51 % 1016,0 hPa 0,0 l/m 17,3 km/h (3 Bft) NO 45 13,1 C 23,9 C
01.05.2012 19:21 23,6 C 51 % 1016,1 hPa 0,0 l/m 13,3 km/h (3 Bft) O-NO 67 12,9 C 23,6 C
01.05.2012 19:26 23,4 C 52 % 1016,2 hPa 0,0 l/m 10,1 km/h (2 Bft) O-NO 67 13,0 C 23,4 C
01.05.2012 19:31 23,2 C 52 % 1016,1 hPa 0,0 l/m 6,1 km/h (2 Bft) O-NO 67 12,8 C 23,2 C
01.05.2012 19:36 23,0 C 53 % 1016,1 hPa 0,0 l/m 9,4 km/h (2 Bft) NO 45 12,9 C 23,0 C
01.05.2012 19:41 22,8 C 53 % 1016,2 hPa 0,0 l/m 9,4 km/h (2 Bft) O-SO 112 12,7 C 22,8 C
01.05.2012 19:46 22,6 C 53 % 1016,3 hPa 0,0 l/m 11,9 km/h (2 Bft) O 90 12,5 C 22,6 C
01.05.2012 19:51 22,3 C 54 % 1016,3 hPa 0,0 l/m 10,4 km/h (2 Bft) NO 45 12,5 C 22,3 C
01.05.2012 19:56 21,9 C 54 % 1016,4 hPa 0,0 l/m 8,3 km/h (2 Bft) O 90 12,2 C 21,9 C
01.05.2012 20:01 21,8 C 55 % 1016,4 hPa 0,0 l/m 6,5 km/h (2 Bft) O-NO 67 12,4 C 21,8 C
01.05.2012 20:06 21,5 C 55 % 1016,5 hPa 0,0 l/m 6,5 km/h (2 Bft) NO 45 12,1 C 21,5 C
01.05.2012 20:11 21,3 C 56 % 1016,5 hPa 0,0 l/m 14,8 km/h (3 Bft) O 90 12,2 C 21,3 C
01.05.2012 20:16 21,0 C 56 % 1016,5 hPa 0,0 l/m 3,2 km/h (1 Bft) O-NO 67 11,9 C 21,0 C
01.05.2012 20:21 20,9 C 56 % 1016,5 hPa 0,0 l/m 7,9 km/h (2 Bft) O-NO 67 11,8 C 20,9 C
01.05.2012 20:26 20,6 C 57 % 1016,6 hPa 0,0 l/m 9,7 km/h (2 Bft) O-NO 67 11,8 C 20,6 C
01.05.2012 20:31 20,4 C 57 % 1016,6 hPa 0,0 l/m 4,0 km/h (1 Bft) O-NO 67 11,6 C 20,4 C
01.05.2012 20:36 20,3 C 58 % 1016,8 hPa 0,0 l/m 5,0 km/h (1 Bft) O-NO 67 11,8 C 20,3 C
01.05.2012 20:41 20,1 C 58 % 1016,8 hPa 0,0 l/m 4,3 km/h (1 Bft) NO 45 11,6 C 20,1 C
01.05.2012 20:46 19,9 C 58 % 1016,8 hPa 0,0 l/m 5,4 km/h (1 Bft) O-NO 67 11,4 C 19,9 C
01.05.2012 20:51 19,8 C 58 % 1017,0 hPa 0,0 l/m 7,2 km/h (2 Bft) O-NO 67 11,3 C 19,8 C
01.05.2012 20:56 19,5 C 59 % 1017,1 hPa 0,0 l/m 6,1 km/h (2 Bft) O-SO 112 11,3 C 19,5 C
01.05.2012 21:01 19,3 C 59 % 1017,2 hPa 0,0 l/m 10,8 km/h (2 Bft) O-SO 112 11,1 C 19,3 C
01.05.2012 21:06 19,1 C 59 % 1017,2 hPa 0,0 l/m 9,0 km/h (2 Bft) NO 45 10,9 C 19,1 C
01.05.2012 21:11 18,9 C 59 % 1017,2 hPa 0,0 l/m 8,3 km/h (2 Bft) NO 45 10,7 C 18,9 C
01.05.2012 21:16 18,8 C 59 % 1017,3 hPa 0,0 l/m 5,4 km/h (1 Bft) O-SO 112 10,6 C 18,8 C
01.05.2012 21:21 18,6 C 59 % 1017,3 hPa 0,0 l/m 6,1 km/h (2 Bft) O-NO 67 10,4 C 18,6 C
01.05.2012 21:26 18,4 C 59 % 1017,2 hPa 0,0 l/m 8,6 km/h (2 Bft) O 90 10,2 C 18,4 C
01.05.2012 21:31 18,2 C 59 % 1017,4 hPa 0,0 l/m 4,7 km/h (1 Bft) NO 45 10,1 C 18,2 C
01.05.2012 21:36 18,1 C 59 % 1017,5 hPa 0,0 l/m 6,8 km/h (2 Bft) O-NO 67 10,0 C 18,1 C
01.05.2012 21:41 17,9 C 59 % 1017,5 hPa 0,0 l/m 12,2 km/h (2 Bft) N-NO 22 9,8 C 17,9 C
01.05.2012 21:46 17,8 C 59 % 1017,5 hPa 0,0 l/m 5,4 km/h (1 Bft) O-SO 112 9,7 C 17,8 C
01.05.2012 21:51 17,6 C 59 % 1017,6 hPa 0,0 l/m 5,8 km/h (2 Bft) O-NO 67 9,5 C 17,6 C
01.05.2012 21:56 17,4 C 59 % 1017,7 hPa 0,0 l/m 4,0 km/h (1 Bft) O-NO 67 9,3 C 17,4 C
01.05.2012 22:01 17,2 C 59 % 1017,8 hPa 0,0 l/m 2,5 km/h (1 Bft) O-NO 67 9,1 C 17,2 C
01.05.2012 22:06 17,0 C 59 % 1017,7 hPa 0,0 l/m 10,1 km/h (2 Bft) O-NO 67 8,9 C 17,0 C
01.05.2012 22:11 16,9 C 60 % 1017,6 hPa 0,0 l/m 2,9 km/h (1 Bft) O 90 9,1 C 16,9 C
01.05.2012 22:16 16,8 C 60 % 1017,7 hPa 0,0 l/m 16,2 km/h (3 Bft) O 90 9,0 C 16,8 C
01.05.2012 22:21 16,5 C 60 % 1017,7 hPa 0,0 l/m 4,0 km/h (1 Bft) O-NO 67 8,7 C 16,5 C
01.05.2012 22:26 16,4 C 60 % 1017,8 hPa 0,0 l/m 3,6 km/h (1 Bft) O-SO 112 8,6 C 16,4 C
01.05.2012 22:31 16,3 C 60 % 1017,9 hPa 0,0 l/m 3,6 km/h (1 Bft) O-NO 67 8,5 C 16,3 C
01.05.2012 22:36 16,1 C 60 % 1017,9 hPa 0,0 l/m 6,1 km/h (2 Bft) O 90 8,3 C 16,1 C
01.05.2012 22:41 16,1 C 60 % 1017,9 hPa 0,0 l/m 5,4 km/h (1 Bft) N-NO 22 8,3 C 16,1 C
01.05.2012 22:46 15,9 C 60 % 1017,9 hPa 0,0 l/m 5,4 km/h (1 Bft) N-NO 22 8,1 C 15,9 C
01.05.2012 22:51 15,8 C 60 % 1017,9 hPa 0,0 l/m 5,0 km/h (1 Bft) O 90 8,1 C 15,8 C
01.05.2012 22:56 15,8 C 60 % 1017,9 hPa 0,0 l/m 4,7 km/h (1 Bft) O 90 8,1 C 15,8 C
01.05.2012 23:01 15,6 C 60 % 1018,0 hPa 0,0 l/m 5,0 km/h (1 Bft) O-NO 67 7,9 C 15,6 C
01.05.2012 23:06 15,6 C 60 % 1017,9 hPa 0,0 l/m 3,2 km/h (1 Bft) N-NO 22 7,9 C 15,6 C
01.05.2012 23:11 15,5 C 60 % 1017,9 hPa 0,0 l/m 4,0 km/h (1 Bft) N-NO 22 7,8 C 15,5 C
01.05.2012 23:16 15,4 C 60 % 1017,9 hPa 0,0 l/m 5,0 km/h (1 Bft) N 360 7,7 C 15,4 C
01.05.2012 23:21 15,2 C 60 % 1017,8 hPa 0,0 l/m 2,5 km/h (1 Bft) N 360 7,5 C 15,2 C
01.05.2012 23:26 15,0 C 61 % 1017,7 hPa 0,0 l/m 2,2 km/h (1 Bft) O-NO 67 7,5 C 15,0 C
01.05.2012 23:31 14,9 C 61 % 1017,6 hPa 0,0 l/m 2,2 km/h (1 Bft) O-NO 67 7,4 C 14,9 C
01.05.2012 23:36 14,9 C 61 % 1017,6 hPa 0,0 l/m 5,8 km/h (2 Bft) N-NO 22 7,4 C 14,9 C
01.05.2012 23:41 14,9 C 61 % 1017,7 hPa 0,0 l/m 4,7 km/h (1 Bft) NO 45 7,4 C 14,9 C
01.05.2012 23:46 14,9 C 61 % 1017,8 hPa 0,0 l/m 3,2 km/h (1 Bft) O-NO 67 7,4 C 14,9 C
01.05.2012 23:51 14,8 C 61 % 1017,8 hPa 0,0 l/m 0,0 km/h (0 Bft) N-NO 22 7,4 C 14,8 C
01.05.2012 23:56 14,8 C 61 % 1018,0 hPa 0,0 l/m 2,9 km/h (1 Bft) N-NO 22 7,4 C 14,8 C
_ Min-Zeit 05:56 16:26 17:31 - 04:16 - - 05:56 05:56
Minimum _ 9,9 C 46 % 1015,7 hPa - 0,0 km/h (0 Bft) - - 5,9 C 9,9 C
_ Max-Zeit 17:16 06:26 00:01 00:01 14:06 - - 15:56 17:16
Maximum _ 26,9 C 77 % 1019,1 hPa 0,0 l/m 20,9 km/h
O-SO (4 Bft)
- - 14,9 C 26,9 C
Durchschnitt _ 17,7 C 62 % 1017,4 hPa #0,0 l/m 6,6 km/h (2 Bft) O-NO - 10,1 C 17,7 C
(c) by David Heller